Vandalia, MI (49095)

11:08 PM EDT on August 29, 2015 (GMT -0400)
Brossman Farms | | Change Station
CLOSE
Current Station
Personal Weather Station
Location: Vandalia, MI
Elevation: 912 ft
Nearby Weather Stations

Elev 912 ft 41.88 °N, 85.87 °W | Updated 11 minutes ago

Overcast
Overcast
66.9 °F
Feels Like 66.9 °F
N
2.0
Wind Variable Wind from SSE
Gusts 4.0 mph

Today
High -- | Low -- °F
--% Chance of Precip.
Yesterday
High -- | Low -- °F
Precip. -- in
7:05 AM 8:22 PM
Full, 100% visible
Pressure 30.05 in
Visibility 7.0 miles
Clouds Overcast 6000 ft
Dew Point 66 °F
Humidity 95%
Rainfall in
Snow Depth Not available.
UV 0 out of 12
Pollen 4.20 out of 12
Air Quality Not available.
Flu Activity Not available.
METAR KHAI 300255Z AUTO 00000KT 7SM OVC060 20/19 A3005 RMK AO2 T01960190
Pressure 30.05 in
Visibility 7.0 miles
Clouds Overcast 6000 ft
Dew Point 66 °F
Humidity 95%
Rainfall in
Snow Depth Not available.
UV 0 out of 12
Pollen 4.20 out of 12
Air Quality Not available.
Flu Activity Not available.
METAR KHAI 300255Z AUTO 00000KT 7SM OVC060 20/19 A3005 RMK AO2 T01960190

10-Day Weather Forecast

×

Almanac

Astronomy

Aug. 29, 2015 Rise Set
Actual Time
Civil Twilight
Nautical Twilight
Astronomical Twilight
Moon
Length of Visible Light
Length of Day
Tomorrow will be .
, % of the Moon is Illuminated

Today's Extremes

State Highs State Lows

Community

WunderPhotos

Upload Photos

1,850,857 photos uploaded!

WunderBlogs® & News

Nearby

Air Quality

  Air Quality AQ Index Pollutant
Not available.

Snow Depth

Station Depth Elevation

Earthquake Activity

City Distance Mag. Time & Date
Minimum magnitude displayed is 2.5.

Coastal Water Temperatures

Place Temperature

Stations

Nearby Weather Stations

Station Location Temp. Windchill Dew Point Humidity Wind Precip. Elev Updated Type